Time;durP1;ratioP1;P1;durP2;ratioP2;P2;SDS_P1;SDS_P2;PMS_P1;PMS_P2;Temp;Humidity;BMP_temperature;BMP_pressure;BME280_temperature;BME280_humidity;BME280_pressure;Samples;Min_cycle;Max_cycle;Signal;HPM_P1;HPM_P2
2023/04/11 00:04:09;;;;;;;3.28;2.00;;;15.20;74.40;;;;;;10966473;32;20026;-70
2023/04/11 00:10:11;;;;;;;3.53;2.60;;;15.00;74.70;;;;;;10982893;32;20045;-70
2023/04/11 00:16:15;;;;;;;3.00;2.12;;;15.00;74.60;;;;;;10968090;32;20454;-69
2023/04/11 00:22:17;;;;;;;2.22;1.70;;;14.90;74.20;;;;;;10982433;32;20507;-69
2023/04/11 00:28:19;;;;;;;3.37;1.70;;;14.70;74.50;;;;;;10982126;32;20045;-69
2023/04/11 00:34:21;;;;;;;2.85;1.77;;;14.70;74.80;;;;;;10978334;32;20389;-70
2023/04/11 00:40:23;;;;;;;3.03;2.30;;;14.60;74.90;;;;;;10982443;32;20344;-69
2023/04/11 00:46:26;;;;;;;4.85;1.83;;;14.50;74.60;;;;;;10982155;32;20045;-70
2023/04/11 00:52:29;;;;;;;3.80;2.33;;;14.50;74.60;;;;;;10981185;32;20049;-70
2023/04/11 00:58:33;;;;;;;4.25;3.20;;;14.30;74.80;;;;;;10949644;32;20057;-69
2023/04/11 01:04:36;;;;;;;2.97;2.33;;;14.40;75.00;;;;;;10981097;32;20388;-70
2023/04/11 01:10:41;;;;;;;3.08;2.33;;;14.30;74.80;;;;;;10966191;32;20052;-70
2023/04/11 01:16:45;;;;;;;3.97;2.58;;;14.20;74.80;;;;;;10965918;32;20074;-69
2023/04/11 01:22:49;;;;;;;3.30;2.35;;;14.20;74.40;;;;;;10980997;32;20022;-69
2023/04/11 01:28:51;;;;;;;3.90;3.28;;;14.20;74.20;;;;;;10978982;32;20023;-70
2023/04/11 01:34:57;;;;;;;4.55;2.83;;;14.00;74.60;;;;;;10978520;32;20411;-70
2023/04/11 01:41:00;;;;;;;3.90;2.83;;;14.10;74.60;;;;;;10966401;32;20014;-70
2023/04/11 01:47:02;;;;;;;4.30;2.80;;;14.10;74.70;;;;;;10980460;32;20332;-70
2023/04/11 01:53:04;;;;;;;3.47;2.62;;;14.00;74.20;;;;;;10978985;32;20049;-69
2023/04/11 01:59:06;;;;;;;2.50;2.28;;;14.00;74.20;;;;;;10980040;32;20023;-70
2023/04/11 02:05:09;;;;;;;3.20;2.20;;;13.80;74.70;;;;;;10979347;32;20057;-69
2023/04/11 02:11:11;;;;;;;2.50;2.25;;;13.80;74.90;;;;;;10979318;32;20041;-69
2023/04/11 02:17:13;;;;;;;4.25;3.28;;;13.70;75.00;;;;;;10983941;32;20046;-70
2023/04/11 02:23:16;;;;;;;5.30;3.28;;;13.70;75.00;;;;;;10987151;32;20014;-69
2023/04/11 02:29:18;;;;;;;6.95;4.00;;;13.80;74.20;;;;;;10987075;32;20285;-70
2023/04/11 02:35:20;;;;;;;5.90;3.33;;;13.70;74.10;;;;;;10985399;32;20336;-69
2023/04/11 02:41:22;;;;;;;5.20;3.25;;;13.60;74.40;;;;;;10985360;32;20023;-70
2023/04/11 02:47:25;;;;;;;3.78;2.58;;;13.70;74.00;;;;;;10985753;32;20018;-70
2023/04/11 02:53:29;;;;;;;3.37;2.50;;;13.50;74.40;;;;;;10985263;32;20026;-70
2023/04/11 02:59:31;;;;;;;6.07;3.00;;;13.50;74.70;;;;;;10972199;32;20345;-69
2023/04/11 03:05:34;;;;;;;6.32;3.08;;;13.30;75.00;;;;;;10984551;32;20359;-70
2023/04/11 03:11:37;;;;;;;7.85;4.95;;;13.30;75.20;;;;;;10984718;32;20030;-69
2023/04/11 03:17:40;;;;;;;4.80;3.37;;;13.50;75.00;;;;;;10984182;32;20030;-69
2023/04/11 03:23:44;;;;;;;4.82;3.45;;;13.60;74.60;;;;;;10984107;32;20049;-69
2023/04/11 03:29:47;;;;;;;6.30;4.07;;;13.50;74.40;;;;;;10983458;32;20049;-69
2023/04/11 03:35:50;;;;;;;4.20;2.90;;;13.40;74.80;;;;;;10983629;32;20026;-69
2023/04/11 03:41:53;;;;;;;5.07;3.40;;;13.40;74.50;;;;;;10984603;32;20076;-69
2023/04/11 03:47:55;;;;;;;3.75;2.40;;;13.40;74.90;;;;;;10983155;32;20014;-69
2023/04/11 03:53:58;;;;;;;4.97;3.45;;;13.20;75.20;;;;;;10983250;32;20034;-70
2023/04/11 04:00:04;;;;;;;5.72;3.47;;;13.20;75.50;;;;;;10968650;32;20034;-69
2023/04/11 04:06:16;;;;;;;6.18;4.05;;;13.20;75.70;;;;;;10984251;32;20364;-69
2023/04/11 04:12:20;;;;;;;5.37;4.03;;;13.30;75.30;;;;;;10982751;32;20014;-70
2023/04/11 04:18:25;;;;;;;6.15;3.83;;;13.40;75.50;;;;;;10978970;32;20022;-69
2023/04/11 04:24:28;;;;;;;3.53;2.75;;;13.40;75.10;;;;;;10969584;32;20022;-69
2023/04/11 04:30:31;;;;;;;5.85;3.33;;;13.20;75.60;;;;;;10981676;32;20037;-69
2023/04/11 04:36:48;;;;;;;6.15;4.45;;;13.10;75.80;;;;;;10980639;32;20019;-69
2023/04/11 04:42:57;;;;;;;6.47;3.80;;;13.20;75.60;;;;;;10969690;32;20011;-69
2023/04/11 04:49:04;;;;;;;3.83;2.97;;;13.20;75.70;;;;;;10982233;32;20328;-69
2023/04/11 04:55:07;;;;;;;3.65;2.80;;;13.20;75.70;;;;;;10980711;32;20026;-69
2023/04/11 05:01:10;;;;;;;8.38;3.62;;;13.20;75.80;;;;;;10980886;32;20019;-69
2023/04/11 05:07:15;;;;;;;6.05;4.45;;;13.10;76.10;;;;;;10979253;32;20329;-69
2023/04/11 05:13:19;;;;;;;5.68;3.67;;;13.10;76.10;;;;;;10981308;32;20328;-69
2023/04/11 05:19:22;;;;;;;4.03;3.12;;;13.20;76.00;;;;;;10980901;32;20062;-69
2023/04/11 05:25:26;;;;;;;4.60;2.67;;;13.30;75.80;;;;;;10979835;32;20049;-70
2023/04/11 05:31:29;;;;;;;5.05;3.00;;;13.20;76.10;;;;;;10979598;32;20348;-69
2023/04/11 05:37:31;;;;;;;8.73;4.30;;;13.30;76.20;;;;;;10966456;32;20389;-69
2023/04/11 05:43:34;;;;;;;4.30;3.10;;;13.30;76.30;;;;;;10979195;32;20002;-69
2023/04/11 05:49:37;;;;;;;6.93;4.05;;;13.40;76.20;;;;;;10965132;32;20035;-70
2023/04/11 05:55:39;;;;;;;5.82;4.47;;;13.60;76.10;;;;;;10979233;32;20018;-69
2023/04/11 06:01:41;;;;;;;5.50;3.87;;;13.80;76.10;;;;;;10964901;32;20057;-69
2023/04/11 06:07:44;;;;;;;11.07;5.03;;;14.00;77.20;;;;;;10979363;32;20075;-69
2023/04/11 06:13:46;;;;;;;5.65;4.40;;;14.20;78.00;;;;;;10977047;32;20019;-69
2023/04/11 06:19:49;;;;;;;8.23;5.75;;;14.30;77.90;;;;;;10977123;32;20412;-69
2023/04/11 06:25:51;;;;;;;9.90;5.20;;;14.40;77.60;;;;;;10964657;32;20053;-69
2023/04/11 06:31:53;;;;;;;6.60;4.40;;;14.50;77.80;;;;;;10978961;32;20054;-70
2023/04/11 06:37:56;;;;;;;6.05;4.50;;;14.50;77.80;;;;;;10979595;32;20053;-70
2023/04/11 06:43:58;;;;;;;7.18;4.90;;;14.40;78.40;;;;;;10964555;32;20030;-70
2023/04/11 06:50:00;;;;;;;6.43;4.87;;;14.60;78.40;;;;;;10990944;32;20038;-70
2023/04/11 06:56:02;;;;;;;5.93;4.62;;;14.70;78.60;;;;;;11017365;32;20010;-70
2023/04/11 07:02:05;;;;;;;7.07;4.78;;;14.70;78.50;;;;;;11006664;32;20057;-70
2023/04/11 07:08:07;;;;;;;8.02;6.25;;;14.80;78.70;;;;;;11010484;32;20014;-70
2023/04/11 07:14:09;;;;;;;5.57;3.75;;;14.80;78.70;;;;;;11019156;32;20037;-70
2023/04/11 07:20:11;;;;;;;5.65;4.40;;;14.70;78.90;;;;;;11022100;32;20014;-70
2023/04/11 07:26:15;;;;;;;7.25;4.75;;;14.80;79.30;;;;;;11022765;32;20045;-70
2023/04/11 07:32:17;;;;;;;8.30;5.78;;;14.90;79.30;;;;;;11023048;32;20056;-70
2023/04/11 07:38:28;;;;;;;8.95;5.72;;;15.10;79.20;;;;;;11022827;32;20017;-70
2023/04/11 07:44:30;;;;;;;11.07;5.80;;;15.00;79.20;;;;;;11022702;32;20033;-70
2023/04/11 07:50:32;;;;;;;11.90;7.07;;;15.10;79.30;;;;;;10776612;27;7148451;-70
2023/04/11 07:56:35;;;;;;;10.50;7.03;;;15.20;79.10;;;;;;10827736;32;20056;-70
2023/04/11 08:02:37;;;;;;;6.95;4.68;;;15.20;79.70;;;;;;10834198;32;20394;-70
2023/04/11 08:08:39;;;;;;;9.35;4.62;;;15.30;79.50;;;;;;10828754;32;20047;-70
2023/04/11 08:14:45;;;;;;;6.47;4.18;;;15.30;79.90;;;;;;10830926;32;20036;-69
2023/04/11 08:21:16;;;;;;;5.45;3.30;;;15.40;80.10;;;;;;10832693;32;20047;-70
2023/04/11 08:27:18;;;;;;;10.30;5.28;;;15.50;80.20;;;;;;10833084;32;20008;-70
2023/04/11 08:33:26;;;;;;;6.07;4.37;;;15.50;80.20;;;;;;10832997;32;20378;-70
2023/04/11 08:39:28;;;;;;;9.15;7.43;;;15.50;80.70;;;;;;10833218;32;20020;-70
2023/04/11 08:45:30;;;;;;;6.50;4.55;;;15.60;79.30;;;;;;10832516;32;20016;-70
2023/04/11 08:51:59;;;;;;;9.55;6.35;;;15.70;79.20;;;;;;10828054;32;20038;-70
2023/04/11 08:58:02;;;;;;;11.48;7.45;;;16.10;78.80;;;;;;10818557;32;20020;-70
2023/04/11 09:04:05;;;;;;;6.47;4.40;;;16.00;77.50;;;;;;10831227;32;20062;-70
2023/04/11 09:10:20;;;;;;;8.02;6.05;;;16.00;78.00;;;;;;10829532;32;20028;-70
2023/04/11 09:16:22;;;;;;;7.32;4.82;;;16.20;77.80;;;;;;10831397;32;20015;-70
2023/04/11 09:22:35;;;;;;;7.57;4.60;;;16.30;77.70;;;;;;10830009;32;20047;-70
2023/04/11 09:28:42;;;;;;;5.93;4.35;;;16.40;76.70;;;;;;10831283;32;20043;-70
2023/04/11 09:34:44;;;;;;;6.70;4.62;;;16.30;75.50;;;;;;10818565;32;20056;-70
2023/04/11 09:40:46;;;;;;;7.60;5.60;;;16.50;76.10;;;;;;10830379;32;20043;-70
2023/04/11 09:47:06;;;;;;;10.82;8.30;;;16.70;76.60;;;;;;10829548;32;20016;-70
2023/04/11 09:53:10;;;;;;;8.15;6.07;;;17.00;76.20;;;;;;10829379;32;20020;-70
2023/04/11 09:59:14;;;;;;;7.85;5.47;;;17.10;75.30;;;;;;10798074;33;20020;-71
2023/04/11 10:05:18;;;;;;;11.65;8.48;;;17.20;75.60;;;;;;10780300;33;20020;-70
2023/04/11 10:11:22;;;;;;;10.77;4.65;;;17.20;72.60;;;;;;10788987;33;20047;-70
2023/04/11 10:17:25;;;;;;;9.13;6.62;;;17.20;73.10;;;;;;10778615;33;20090;-70
2023/04/11 10:23:27;;;;;;;6.93;4.37;;;17.50;73.00;;;;;;10791948;33;20327;-70
2023/04/11 10:35:31;;;;;;;7.90;5.25;;;17.70;70.30;;;;;;10792998;33;20039;-70
2023/04/11 10:41:33;;;;;;;5.90;3.85;;;17.70;71.40;;;;;;10798908;33;20009;-70
2023/04/11 10:47:35;;;;;;;6.25;4.18;;;17.90;72.30;;;;;;10800000;33;20382;-70
2023/04/11 10:53:38;;;;;;;6.03;2.90;;;18.10;71.20;;;;;;10798812;33;20012;-70
2023/04/11 10:59:43;;;;;;;4.40;2.90;;;18.30;71.20;;;;;;10798773;33;20023;-70
2023/04/11 11:05:46;;;;;;;6.03;4.18;;;18.60;70.20;;;;;;10799261;33;20016;-70
2023/04/11 11:12:07;;;;;;;7.25;4.12;;;18.90;69.20;;;;;;10798348;33;20029;-70
2023/04/11 11:18:13;;;;;;;3.62;2.28;;;19.00;68.30;;;;;;10797849;33;20050;-70
2023/04/11 11:24:26;;;;;;;8.82;5.30;;;19.30;69.00;;;;;;10797887;33;20044;-70
2023/04/11 11:30:28;;;;;;;6.65;4.45;;;19.30;68.20;;;;;;10797724;33;20016;-71
2023/04/11 11:36:37;;;;;;;9.15;6.07;;;19.30;69.30;;;;;;10783168;33;20063;-70
2023/04/11 11:42:40;;;;;;;10.38;7.95;;;19.30;67.50;;;;;;10797947;33;20059;-70
2023/04/11 11:48:56;;;;;;;9.68;6.55;;;19.40;67.60;;;;;;10796857;33;20019;-70
2023/04/11 11:55:00;;;;;;;13.00;10.10;;;19.20;68.20;;;;;;10796224;33;20024;-70
2023/04/11 12:01:02;;;;;;;8.15;4.72;;;19.10;67.30;;;;;;10796223;33;20104;-70
2023/04/11 12:07:09;;;;;;;8.55;4.32;;;19.10;67.20;;;;;;10797211;33;20367;-70
2023/04/11 12:13:17;;;;;;;10.10;6.07;;;19.30;67.10;;;;;;10793593;33;20050;-74
2023/04/11 12:19:20;;;;;;;9.33;5.93;;;19.30;65.80;;;;;;10781596;33;20035;-75
2023/04/11 12:25:24;;;;;;;12.88;9.50;;;19.30;66.60;;;;;;10796076;33;20019;-75
2023/04/11 12:31:26;;;;;;;8.40;4.80;;;19.50;65.10;;;;;;10796178;33;20020;-74
2023/04/11 12:37:29;;;;;;;10.05;6.80;;;19.50;62.80;;;;;;10795385;33;20028;-75
2023/04/11 12:43:31;;;;;;;12.15;7.70;;;19.60;63.80;;;;;;10796398;33;20037;-74
2023/04/11 12:49:33;;;;;;;11.02;8.20;;;19.70;63.50;;;;;;10794038;33;20024;-75
2023/04/11 12:55:36;;;;;;;10.10;7.78;;;19.70;64.10;;;;;;10795392;33;20441;-74
2023/04/11 13:01:38;;;;;;;17.30;12.93;;;19.70;63.80;;;;;;10790146;33;20024;-74
2023/04/11 13:07:41;;;;;;;7.05;4.40;;;19.70;66.00;;;;;;10792228;33;20063;-75
2023/04/11 13:13:43;;;;;;;10.40;8.30;;;19.50;64.40;;;;;;10791762;33;20339;-75
2023/04/11 13:19:45;;;;;;;9.55;6.37;;;19.60;65.70;;;;;;10793835;33;20475;-74
2023/04/11 13:25:47;;;;;;;8.15;4.50;;;19.50;64.20;;;;;;10793202;33;20051;-74
2023/04/11 13:31:50;;;;;;;8.77;5.35;;;19.80;64.00;;;;;;10794249;33;20051;-70
2023/04/11 13:37:52;;;;;;;6.95;5.03;;;20.10;62.70;;;;;;10779690;33;20103;-70
2023/04/11 13:43:54;;;;;;;9.68;4.30;;;20.00;62.60;;;;;;10779714;33;20054;-71
2023/04/11 13:49:56;;;;;;;7.15;5.05;;;20.00;61.50;;;;;;10818319;32;20021;-70
2023/04/11 13:55:58;;;;;;;12.93;6.22;;;19.80;63.00;;;;;;10827270;32;20406;-70
2023/04/11 14:02:01;;;;;;;5.60;3.60;;;19.60;63.80;;;;;;10826622;33;20028;-70
2023/04/11 14:08:03;;;;;;;9.45;6.37;;;19.50;62.60;;;;;;10823684;33;20023;-70
2023/04/11 14:14:05;;;;;;;5.90;3.42;;;19.70;62.50;;;;;;10808195;32;20059;-70
2023/04/11 14:20:10;;;;;;;9.82;6.15;;;19.70;61.70;;;;;;10825880;32;20059;-70
2023/04/11 14:26:12;;;;;;;4.47;3.30;;;19.80;62.50;;;;;;10802452;32;20032;-70
2023/04/11 14:32:14;;;;;;;10.43;7.28;;;19.70;61.50;;;;;;10810098;32;20035;-70
2023/04/11 14:38:16;;;;;;;11.23;7.43;;;19.80;62.10;;;;;;10815946;32;20132;-70
2023/04/11 14:44:18;;;;;;;9.85;6.35;;;19.50;63.50;;;;;;10805597;32;20338;-70
2023/04/11 14:50:20;;;;;;;6.35;4.25;;;19.60;63.40;;;;;;10821603;32;20107;-70
2023/04/11 14:56:23;;;;;;;6.22;3.12;;;19.80;64.20;;;;;;10816438;32;20074;-71
2023/04/11 15:02:25;;;;;;;5.95;3.87;;;19.70;62.50;;;;;;10818615;33;20086;-70
2023/04/11 15:08:27;;;;;;;4.78;3.40;;;19.60;62.10;;;;;;10833922;32;20032;-70
2023/04/11 15:14:29;;;;;;;7.30;4.78;;;19.40;62.20;;;;;;10835568;32;20024;-71
2023/04/11 15:20:31;;;;;;;8.23;5.15;;;19.60;62.20;;;;;;10834562;32;20417;-71
2023/04/11 15:26:34;;;;;;;6.32;4.72;;;19.70;64.70;;;;;;10835445;32;20322;-70
2023/04/11 15:32:41;;;;;;;8.57;5.07;;;19.70;64.40;;;;;;10835111;32;20078;-70
2023/04/11 15:38:44;;;;;;;7.68;5.20;;;19.80;64.60;;;;;;10822410;32;20330;-70
2023/04/11 15:44:46;;;;;;;4.07;2.80;;;19.80;65.80;;;;;;10835162;32;20077;-70
2023/04/11 15:50:49;;;;;;;10.18;4.80;;;20.00;65.80;;;;;;10871916;27;20027;-70
2023/04/11 15:56:51;;;;;;;6.07;4.00;;;20.20;67.20;;;;;;10983376;32;20286;-70
2023/04/11 16:02:53;;;;;;;4.35;2.95;;;20.30;65.40;;;;;;10983320;32;20282;-70
2023/04/11 16:08:55;;;;;;;8.52;4.72;;;20.80;64.80;;;;;;10983463;32;20072;-70
2023/04/11 16:14:57;;;;;;;9.55;6.97;;;21.10;64.20;;;;;;10982593;32;20045;-71
2023/04/11 16:20:59;;;;;;;5.75;4.05;;;21.10;65.80;;;;;;10978069;32;20053;-70
2023/04/11 16:27:01;;;;;;;11.00;6.45;;;20.80;68.20;;;;;;10983149;32;20305;-70
2023/04/11 16:33:03;;;;;;;9.88;6.03;;;20.70;68.20;;;;;;10981213;32;20014;-69
2023/04/11 16:39:06;;;;;;;9.18;5.00;;;20.30;67.10;;;;;;10982315;32;20105;-70
2023/04/11 16:45:09;;;;;;;11.82;4.45;;;20.40;68.50;;;;;;10982181;32;20053;-70
2023/04/11 16:51:12;;;;;;;6.45;3.87;;;20.50;67.80;;;;;;10967036;32;20031;-69
2023/04/11 16:57:14;;;;;;;5.45;3.87;;;20.50;68.20;;;;;;10980185;32;20030;-70
2023/04/11 17:03:16;;;;;;;4.22;3.42;;;20.60;65.90;;;;;;10962233;32;20057;-70
2023/04/11 17:09:19;;;;;;;6.32;4.50;;;20.40;66.70;;;;;;10981493;32;20011;-70
2023/04/11 17:15:21;;;;;;;8.30;3.47;;;20.10;67.00;;;;;;10966510;32;20048;-70
2023/04/11 17:21:23;;;;;;;6.25;3.47;;;19.80;67.10;;;;;;10950796;32;20061;-70
2023/04/11 17:27:25;;;;;;;6.00;4.03;;;19.70;67.80;;;;;;10980045;32;20058;-70
2023/04/11 17:33:28;;;;;;;2.97;2.03;;;19.30;68.90;;;;;;10980326;32;20041;-70
2023/04/11 17:39:30;;;;;;;3.58;2.42;;;19.00;69.00;;;;;;10979659;32;20022;-70
2023/04/11 17:45:32;;;;;;;4.47;2.25;;;18.80;69.70;;;;;;10978784;32;20384;-70
2023/04/11 17:51:35;;;;;;;7.00;3.28;;;18.60;70.70;;;;;;10979092;32;20041;-70
2023/04/11 17:57:38;;;;;;;7.10;4.40;;;18.40;71.30;;;;;;10978416;32;20014;-70
2023/04/11 18:03:40;;;;;;;5.90;3.05;;;18.20;72.00;;;;;;10978826;32;20310;-70
2023/04/11 18:09:45;;;;;;;5.37;3.65;;;18.20;72.60;;;;;;10978124;32;20393;-70
2023/04/11 18:15:47;;;;;;;5.07;3.28;;;17.90;72.70;;;;;;10979884;32;20041;-74
2023/04/11 18:21:49;;;;;;;4.68;2.90;;;17.80;73.40;;;;;;10965594;32;20019;-74
2023/04/11 18:27:51;;;;;;;3.45;2.72;;;17.80;73.80;;;;;;10975140;32;20022;-74
2023/04/11 18:33:53;;;;;;;6.70;4.53;;;17.70;74.00;;;;;;10978058;32;20037;-74
2023/04/11 18:39:56;;;;;;;7.15;4.50;;;17.50;74.40;;;;;;10976365;32;20063;-74
2023/04/11 18:46:00;;;;;;;6.22;3.67;;;17.50;74.60;;;;;;10978730;32;20011;-74
2023/04/11 18:52:03;;;;;;;6.55;4.35;;;17.30;74.90;;;;;;10978594;32;20026;-74
2023/04/11 18:58:05;;;;;;;6.82;4.50;;;17.30;74.90;;;;;;10981799;32;20014;-74
2023/04/11 19:04:08;;;;;;;5.50;3.65;;;17.20;74.90;;;;;;10970879;32;20026;-74
2023/04/11 19:10:10;;;;;;;5.78;3.85;;;17.00;75.30;;;;;;10985631;32;20015;-74
2023/04/11 19:16:13;;;;;;;6.40;5.43;;;17.00;75.40;;;;;;10985420;32;20006;-74
2023/04/11 19:22:15;;;;;;;7.15;3.92;;;16.90;75.70;;;;;;10984195;32;20029;-74
2023/04/11 19:28:18;;;;;;;13.93;6.65;;;16.90;75.80;;;;;;10985093;32;20015;-74
2023/04/11 19:34:20;;;;;;;9.77;6.97;;;16.80;75.90;;;;;;10984133;32;20015;-74
2023/04/11 19:40:22;;;;;;;5.03;3.67;;;16.80;76.10;;;;;;10983958;32;20045;-74
2023/04/11 19:46:24;;;;;;;7.47;4.93;;;16.70;76.30;;;;;;10982801;32;20388;-74
2023/04/11 19:52:29;;;;;;;15.18;5.28;;;16.70;76.40;;;;;;10967529;32;20018;-75
2023/04/11 19:58:33;;;;;;;7.10;5.03;;;16.80;76.00;;;;;;10983305;32;20019;-74
2023/04/11 20:04:37;;;;;;;10.13;5.47;;;16.90;75.50;;;;;;10984406;32;20041;-74
2023/04/11 20:10:40;;;;;;;11.35;7.93;;;16.80;75.50;;;;;;10982896;32;20411;-70
2023/04/11 20:16:42;;;;;;;7.30;4.60;;;16.80;75.40;;;;;;10982617;32;20030;-70
2023/04/11 20:22:45;;;;;;;7.85;6.57;;;16.80;75.20;;;;;;10968436;32;20038;-70
2023/04/11 20:28:49;;;;;;;7.93;5.78;;;16.80;75.30;;;;;;10982533;32;20336;-70
2023/04/11 20:34:52;;;;;;;8.52;4.72;;;16.80;75.40;;;;;;10982968;32;20033;-70
2023/04/11 20:40:55;;;;;;;7.90;5.50;;;16.80;76.20;;;;;;10982646;32;20049;-70
2023/04/11 20:46:57;;;;;;;8.57;5.85;;;16.80;77.10;;;;;;10982251;32;20038;-75
2023/04/11 20:53:00;;;;;;;7.62;5.22;;;16.80;77.00;;;;;;10981102;32;20022;-75
2023/04/11 20:59:03;;;;;;;6.97;5.15;;;16.70;76.90;;;;;;10981260;32;20022;-75
2023/04/11 21:05:07;;;;;;;10.25;7.22;;;16.60;76.80;;;;;;10982385;32;20289;-75
2023/04/11 21:11:09;;;;;;;9.65;6.80;;;16.50;77.10;;;;;;10968683;32;20384;-75
2023/04/11 21:17:12;;;;;;;9.95;8.57;;;16.30;78.00;;;;;;10979275;32;20026;-75
2023/04/11 21:23:14;;;;;;;9.27;5.72;;;16.20;77.80;;;;;;10961372;32;20022;-75
2023/04/11 21:29:16;;;;;;;11.25;7.80;;;16.00;79.10;;;;;;10978777;32;20054;-75
2023/04/11 21:35:18;;;;;;;8.85;7.15;;;16.20;78.20;;;;;;10979895;32;20019;-76
2023/04/11 21:41:21;;;;;;;11.30;8.98;;;16.10;78.80;;;;;;10978721;32;20049;-75
2023/04/11 21:47:23;;;;;;;11.20;7.25;;;16.10;78.40;;;;;;10965617;32;20030;-75
2023/04/11 21:53:25;;;;;;;9.82;7.68;;;16.10;79.30;;;;;;10965485;32;20031;-75
2023/04/11 21:59:28;;;;;;;13.15;10.10;;;16.00;78.60;;;;;;10960676;32;20061;-75
2023/04/11 22:05:30;;;;;;;12.43;9.02;;;16.00;78.10;;;;;;10979706;32;20061;-74
2023/04/11 22:11:32;;;;;;;14.23;8.15;;;16.00;77.60;;;;;;10964970;32;20048;-75
2023/04/11 22:17:35;;;;;;;11.73;10.48;;;16.00;77.80;;;;;;10979290;32;20023;-75
2023/04/11 22:23:38;;;;;;;16.52;11.75;;;15.90;77.80;;;;;;10979710;32;20011;-74
2023/04/11 22:29:41;;;;;;;12.10;9.25;;;15.90;77.40;;;;;;10979432;32;20010;-74
2023/04/11 22:35:43;;;;;;;9.20;6.15;;;15.90;77.20;;;;;;10973667;32;20015;-74
2023/04/11 22:41:50;;;;;;;10.93;6.68;;;15.70;77.20;;;;;;10986941;32;20313;-75
2023/04/11 22:47:58;;;;;;;11.40;8.73;;;15.70;77.00;;;;;;10986771;32;20407;-75
2023/04/11 22:54:01;;;;;;;10.57;8.30;;;15.80;77.40;;;;;;10985657;32;20340;-75
2023/04/11 23:00:06;;;;;;;12.07;8.43;;;15.80;78.40;;;;;;10971357;32;20061;-75
2023/04/11 23:06:09;;;;;;;11.15;8.23;;;15.80;78.60;;;;;;10986174;32;20006;-75
2023/04/11 23:12:12;;;;;;;8.98;6.47;;;15.90;78.60;;;;;;10985246;32;20030;-75
2023/04/11 23:18:16;;;;;;;7.18;5.55;;;15.80;78.60;;;;;;10981388;32;20026;-75
2023/04/11 23:24:18;;;;;;;7.40;4.97;;;15.80;78.70;;;;;;10985405;32;20400;-75
2023/04/11 23:30:20;;;;;;;7.22;5.03;;;15.70;79.40;;;;;;10985236;32;20041;-74
2023/04/11 23:36:22;;;;;;;9.25;5.25;;;15.70;79.00;;;;;;10985124;32;20049;-75
2023/04/11 23:42:25;;;;;;;10.13;7.93;;;15.60;79.00;;;;;;10983104;32;20011;-75
2023/04/11 23:48:36;;;;;;;8.68;7.10;;;15.50;78.80;;;;;;10983952;32;20054;-75
2023/04/11 23:54:39;;;;;;;9.60;6.03;;;15.70;78.40;;;;;;10970454;27;20034;-75
